BHL weather

Bahía de los Ángeles Airport
Bahía de los Ángeles, Baja California, Mexico

Public forecast

Using degrees Celsius for public forecast. Weather courtesy of forecast.io.

METAR (pilot weather report)

Closest report is General Ignacio P. Garcia International Airport, 132.1 nm (244.7 km) E. Retrieved 2019/01/18 20:40 UTC (1 hour ago):

MMHO 182040Z 24006KT 10SM FEW200 29/08 A3005 RMK SLP176 57028 957 8/004

TAF (pilot weather forecast)

Forecast is more than 12 hours old.

Closest forecast is General Ignacio P. Garcia International Airport, 132.1 nm (244.7 km) E. Retrieved 2019/01/17 18:15 UTC (1 day ago):

TAF MMHO 171711Z 1718/1818 24010KT P6SM SKC FM180300 30010KT P6SM SKC